Time;durP1;ratioP1;P1;durP2;ratioP2;P2;SDS_P1;SDS_P2;PMS_P1;PMS_P2;Temp;Humidity;BMP_temperature;BMP_pressure;BME280_temperature;BME280_humidity;BME280_pressure;Samples;Min_cycle;Max_cycle;Signal;HPM_P1;HPM_P2
2022/03/16 00:02:20;;;;;;;122.18;57.33;;;4.60;99.90;;;;;;5131019;27;20130;-82
2022/03/16 00:04:53;;;;;;;100.40;50.67;;;4.50;99.90;;;;;;5132882;27;20043;-83
2022/03/16 00:07:19;;;;;;;105.07;52.15;;;5.00;99.90;;;;;;5132035;27;20051;-83
2022/03/16 00:09:45;;;;;;;124.93;58.47;;;4.50;99.90;;;;;;5113601;27;20062;-83
2022/03/16 00:12:11;;;;;;;142.70;63.67;;;4.50;99.90;;;;;;5113918;27;20043;-83
2022/03/16 00:14:36;;;;;;;146.82;64.28;;;4.50;99.90;;;;;;5114305;27;20487;-83
2022/03/16 00:17:03;;;;;;;145.38;63.35;;;4.50;99.90;;;;;;5131059;27;20054;-83
2022/03/16 00:19:29;;;;;;;105.13;52.33;;;4.40;99.90;;;;;;5132165;27;20111;-83
2022/03/16 00:21:56;;;;;;;120.20;57.67;;;4.70;99.90;;;;;;5113605;27;20112;-83
2022/03/16 00:24:21;;;;;;;125.75;58.63;;;4.30;99.90;;;;;;5131929;27;20051;-83
2022/03/16 00:26:47;;;;;;;118.70;56.10;;;4.30;99.90;;;;;;5130891;27;20043;-83
2022/03/16 00:29:13;;;;;;;149.10;63.88;;;5.10;99.90;;;;;;5130753;27;20158;-84
2022/03/16 00:31:38;;;;;;;145.02;62.67;;;4.30;99.90;;;;;;5131022;27;20057;-84
2022/03/16 00:34:04;;;;;;;99.38;52.38;;;4.30;99.90;;;;;;5135089;27;20058;-83
2022/03/16 00:36:30;;;;;;;114.40;57.30;;;4.60;99.90;;;;;;5146715;27;20043;-83
2022/03/16 00:38:55;;;;;;;153.77;63.45;;;5.00;99.90;;;;;;5113919;27;20059;-83
2022/03/16 00:41:21;;;;;;;139.23;63.45;;;4.40;99.90;;;;;;5113236;27;20043;-82
2022/03/16 00:43:47;;;;;;;177.85;69.47;;;4.30;99.90;;;;;;5131955;27;20124;-83
2022/03/16 00:46:12;;;;;;;165.40;67.93;;;4.10;99.90;;;;;;5113193;27;20046;-84
2022/03/16 00:48:38;;;;;;;176.90;72.68;;;4.20;99.90;;;;;;5113215;27;20082;-84
2022/03/16 00:51:04;;;;;;;189.65;74.15;;;5.20;99.90;;;;;;5113877;28;20054;-84
2022/03/16 00:53:34;;;;;;;188.25;71.72;;;4.20;99.90;;;;;;5114045;27;20431;-83
2022/03/16 00:56:05;;;;;;;195.27;75.53;;;5.30;99.90;;;;;;5130939;27;20129;-83
2022/03/16 00:58:30;;;;;;;202.15;78.10;;;4.40;99.90;;;;;;5113391;28;20097;-83
2022/03/16 01:00:56;;;;;;;200.93;76.03;;;5.10;99.90;;;;;;5130360;27;20074;-83
2022/03/16 01:03:22;;;;;;;201.00;76.18;;;4.50;99.90;;;;;;5112816;28;20043;-83
2022/03/16 01:05:47;;;;;;;206.27;77.80;;;4.50;99.90;;;;;;5113609;28;20057;-83
2022/03/16 01:08:13;;;;;;;199.40;74.63;;;5.50;99.90;;;;;;5129570;28;20051;-83
2022/03/16 01:10:39;;;;;;;188.85;72.97;;;4.50;99.90;;;;;;5113399;28;20487;-83
2022/03/16 01:13:05;;;;;;;177.98;69.22;;;4.80;99.90;;;;;;5130221;28;20475;-82
2022/03/16 01:15:31;;;;;;;178.35;70.65;;;4.40;99.90;;;;;;5113002;28;20051;-82
2022/03/16 01:17:56;;;;;;;157.70;63.95;;;5.40;99.90;;;;;;5130531;28;20066;-83
2022/03/16 01:20:22;;;;;;;161.18;66.95;;;4.30;99.90;;;;;;5129928;28;20054;-83
2022/03/16 01:22:48;;;;;;;167.43;66.78;;;4.30;99.90;;;;;;5130532;28;20069;-83
2022/03/16 01:25:13;;;;;;;143.20;61.78;;;5.30;99.90;;;;;;5129820;28;20494;-83
2022/03/16 01:27:39;;;;;;;161.43;63.75;;;4.80;99.90;;;;;;5131256;28;20047;-83
2022/03/16 01:30:05;;;;;;;169.70;70.65;;;4.20;99.90;;;;;;5130094;28;20440;-83
2022/03/16 01:32:31;;;;;;;166.63;66.45;;;4.30;99.90;;;;;;5095603;28;20055;-83
2022/03/16 01:34:57;;;;;;;183.60;70.43;;;4.20;99.90;;;;;;5112248;28;20100;-83
2022/03/16 01:37:22;;;;;;;162.32;66.20;;;5.30;99.90;;;;;;5091760;28;20062;-83
2022/03/16 01:39:48;;;;;;;164.73;63.80;;;4.30;99.90;;;;;;5092722;28;20066;-83
2022/03/16 01:42:14;;;;;;;154.48;61.72;;;4.20;99.90;;;;;;5126155;28;20468;-82
2022/03/16 01:44:50;;;;;;;179.13;69.10;;;4.80;99.90;;;;;;5109055;28;20415;-83
2022/03/16 01:47:16;;;;;;;171.38;66.18;;;4.20;99.90;;;;;;5092194;28;20062;-83
2022/03/16 01:49:42;;;;;;;187.95;67.60;;;4.20;99.90;;;;;;5075894;28;20055;-84
2022/03/16 01:52:09;;;;;;;176.43;69.05;;;4.70;99.90;;;;;;5091752;28;20502;-84
2022/03/16 01:54:35;;;;;;;203.00;71.97;;;4.60;99.90;;;;;;5058802;28;20524;-83
2022/03/16 01:57:01;;;;;;;197.88;72.35;;;4.10;99.90;;;;;;5092077;28;20552;-85
2022/03/16 01:59:27;;;;;;;180.90;69.00;;;4.10;99.90;;;;;;5109983;28;20108;-84
2022/03/16 02:01:52;;;;;;;210.60;74.53;;;4.90;99.90;;;;;;5099141;27;20050;-83
2022/03/16 02:04:18;;;;;;;234.43;79.57;;;4.10;99.90;;;;;;5133102;27;20079;-84
2022/03/16 02:06:44;;;;;;;191.35;72.90;;;4.10;99.90;;;;;;5116620;27;20043;-84
2022/03/16 02:09:09;;;;;;;231.48;77.35;;;4.10;99.90;;;;;;5133216;27;20654;-83
2022/03/16 02:11:35;;;;;;;207.77;73.85;;;4.10;99.90;;;;;;5132935;27;20043;-83
2022/03/16 02:14:01;;;;;;;220.85;76.90;;;4.80;99.90;;;;;;5133452;27;20042;-84
2022/03/16 02:16:27;;;;;;;186.40;68.78;;;4.10;99.90;;;;;;5133303;27;20382;-84
2022/03/16 02:18:53;;;;;;;198.57;72.10;;;4.00;99.90;;;;;;5134274;27;20050;-83
2022/03/16 02:21:18;;;;;;;192.65;69.63;;;4.00;99.90;;;;;;5133990;27;20039;-84
2022/03/16 02:23:44;;;;;;;236.80;79.10;;;3.90;99.90;;;;;;5115620;27;20039;-84
2022/03/16 02:26:12;;;;;;;211.25;72.75;;;3.90;99.90;;;;;;5133697;27;20038;-81
2022/03/16 02:28:38;;;;;;;197.23;72.72;;;4.30;99.90;;;;;;5133666;27;20043;-83
2022/03/16 02:31:05;;;;;;;154.70;59.95;;;3.80;99.90;;;;;;5133466;27;20122;-82
2022/03/16 02:33:30;;;;;;;174.00;60.40;;;3.70;99.90;;;;;;5116148;27;20545;-84
2022/03/16 02:35:56;;;;;;;191.02;66.13;;;3.80;99.90;;;;;;5133898;27;20122;-83
2022/03/16 02:38:22;;;;;;;181.20;66.28;;;3.90;99.90;;;;;;5116470;27;20042;-82
2022/03/16 02:40:48;;;;;;;210.35;70.68;;;3.60;99.90;;;;;;5115764;27;20104;-83
2022/03/16 02:43:13;;;;;;;186.35;65.93;;;3.70;99.90;;;;;;5134208;27;20051;-84
2022/03/16 02:45:39;;;;;;;1065.10;115.13;;;3.90;99.90;;;;;;5131859;27;20046;-84
2022/03/16 02:48:05;;;;;;;1152.18;115.75;;;3.50;99.90;;;;;;5132993;27;20057;-84
2022/03/16 02:50:31;;;;;;;407.15;78.63;;;3.50;99.90;;;;;;5132785;27;20154;-84
2022/03/16 02:52:57;;;;;;;575.60;80.07;;;3.40;99.90;;;;;;5133721;27;20058;-84
2022/03/16 02:55:23;;;;;;;702.00;84.43;;;3.30;99.90;;;;;;5081344;27;20047;-83
2022/03/16 02:57:48;;;;;;;1124.72;112.35;;;3.40;99.90;;;;;;5115640;27;20379;-84
2022/03/16 03:00:14;;;;;;;1227.65;118.97;;;3.40;99.90;;;;;;5132140;27;20089;-83
2022/03/16 03:02:41;;;;;;;1111.90;109.75;;;3.30;99.90;;;;;;5115030;27;20047;-82
2022/03/16 03:05:07;;;;;;;1004.67;101.57;;;3.20;99.90;;;;;;5131915;27;20047;-83
2022/03/16 03:07:33;;;;;;;827.20;92.45;;;3.10;99.90;;;;;;5133119;27;20126;-82
2022/03/16 03:09:59;;;;;;;1027.50;109.68;;;3.10;99.90;;;;;;5114639;27;20130;-82
2022/03/16 03:12:24;;;;;;;589.60;76.28;;;3.00;99.90;;;;;;5131839;27;20051;-82
2022/03/16 03:14:50;;;;;;;955.70;101.65;;;2.90;99.90;;;;;;5132181;27;20071;-82
2022/03/16 03:17:15;;;;;;;1040.60;109.05;;;2.90;99.90;;;;;;5115319;27;20114;-83
2022/03/16 03:19:43;;;;;;;473.40;66.00;;;2.90;99.90;;;;;;5114595;27;20035;-83
2022/03/16 03:22:09;;;;;;;773.13;89.95;;;2.80;99.90;;;;;;5115484;27;20047;-83
2022/03/16 03:24:35;;;;;;;1228.55;128.23;;;2.80;99.90;;;;;;5131589;27;20078;-83
2022/03/16 03:27:00;;;;;;;704.58;92.55;;;3.60;99.90;;;;;;5133294;27;20127;-83
2022/03/16 03:29:26;;;;;;;874.47;106.00;;;3.10;99.90;;;;;;5131922;27;20459;-83
2022/03/16 03:31:52;;;;;;;720.65;94.80;;;4.00;99.90;;;;;;5114753;27;20051;-84
2022/03/16 03:34:17;;;;;;;673.03;85.57;;;2.70;99.90;;;;;;5131898;27;20039;-83
2022/03/16 03:36:43;;;;;;;989.63;113.25;;;2.70;99.90;;;;;;5114345;27;20375;-83
2022/03/16 03:39:09;;;;;;;562.00;82.40;;;2.70;99.90;;;;;;5115103;27;20370;-83
2022/03/16 03:41:35;;;;;;;573.92;88.22;;;3.70;99.90;;;;;;5114225;27;20056;-83
2022/03/16 03:44:01;;;;;;;629.30;94.20;;;2.70;99.90;;;;;;5133062;27;20043;-83
2022/03/16 03:46:27;;;;;;;1000.47;114.50;;;2.60;99.90;;;;;;5114493;27;20081;-81
2022/03/16 03:48:53;;;;;;;945.63;112.55;;;2.70;99.90;;;;;;5131876;27;20499;-83
2022/03/16 03:51:18;;;;;;;276.25;65.20;;;2.80;99.90;;;;;;5132865;27;20043;-83
2022/03/16 03:53:44;;;;;;;748.65;101.18;;;3.90;99.90;;;;;;5131298;27;20043;-83
2022/03/16 03:56:10;;;;;;;994.45;117.72;;;2.70;99.90;;;;;;5132572;27;20050;-83
2022/03/16 03:58:37;;;;;;;810.28;101.10;;;2.70;99.90;;;;;;5131527;27;20464;-82
2022/03/16 04:01:03;;;;;;;1348.65;137.30;;;3.90;99.90;;;;;;5132615;27;20049;-83
2022/03/16 04:03:29;;;;;;;984.88;109.00;;;3.00;99.90;;;;;;5132102;27;20047;-82
2022/03/16 04:05:55;;;;;;;755.78;90.38;;;3.20;99.90;;;;;;5131403;27;20042;-85
2022/03/16 04:08:20;;;;;;;734.47;92.78;;;3.10;99.90;;;;;;5113910;27;20063;-82
2022/03/16 04:10:46;;;;;;;977.92;112.03;;;3.00;99.90;;;;;;5131924;27;20479;-82
2022/03/16 04:13:12;;;;;;;662.72;87.53;;;3.00;99.90;;;;;;5131386;27;20105;-84
2022/03/16 04:15:37;;;;;;;1418.70;138.25;;;4.10;99.90;;;;;;5096805;27;20039;-84
2022/03/16 04:18:03;;;;;;;501.10;82.40;;;3.50;99.90;;;;;;5114200;27;20054;-83
2022/03/16 04:20:29;;;;;;;592.20;91.97;;;2.80;99.90;;;;;;5135666;27;20054;-83
2022/03/16 04:22:54;;;;;;;724.72;94.53;;;2.90;99.90;;;;;;5096176;27;20047;-83
2022/03/16 04:25:20;;;;;;;1150.00;126.13;;;2.80;99.90;;;;;;5130944;27;20468;-84
2022/03/16 04:27:46;;;;;;;928.15;125.38;;;3.00;99.90;;;;;;5131764;27;20455;-83
2022/03/16 04:30:12;;;;;;;762.70;103.25;;;3.90;99.90;;;;;;5132221;27;20046;-83
2022/03/16 04:32:37;;;;;;;627.70;96.57;;;3.90;99.90;;;;;;5130608;27;20039;-83
2022/03/16 04:35:03;;;;;;;913.30;113.85;;;2.90;99.90;;;;;;5113901;27;20405;-82
2022/03/16 04:37:29;;;;;;;1358.00;141.50;;;2.90;99.90;;;;;;5130840;27;20424;-84
2022/03/16 04:39:55;;;;;;;797.60;105.68;;;4.10;99.90;;;;;;5130515;27;20096;-83
2022/03/16 04:42:20;;;;;;;831.15;115.78;;;3.90;99.90;;;;;;5113950;27;20054;-83
2022/03/16 04:44:46;;;;;;;752.60;105.47;;;3.10;99.90;;;;;;5112778;27;20039;-83
2022/03/16 04:47:11;;;;;;;653.25;96.00;;;3.20;99.90;;;;;;5113720;27;20096;-84
2022/03/16 04:49:37;;;;;;;962.50;121.57;;;3.20;99.90;;;;;;5131544;27;20050;-82
2022/03/16 04:52:03;;;;;;;865.65;112.15;;;3.60;99.90;;;;;;5130135;27;20035;-83
2022/03/16 04:54:29;;;;;;;575.88;87.93;;;3.20;99.90;;;;;;5113470;28;20125;-82
2022/03/16 04:56:55;;;;;;;652.35;95.45;;;3.30;99.90;;;;;;5130298;27;20043;-83
2022/03/16 04:59:21;;;;;;;695.45;96.22;;;3.30;99.90;;;;;;5113876;28;20047;-83
2022/03/16 05:01:47;;;;;;;744.13;99.60;;;3.30;99.90;;;;;;5096240;28;20095;-83
2022/03/16 05:04:12;;;;;;;687.70;97.40;;;3.40;99.90;;;;;;5096445;28;20485;-82
2022/03/16 05:06:38;;;;;;;705.63;108.50;;;3.40;99.90;;;;;;5129804;28;20126;-82
2022/03/16 05:09:04;;;;;;;1054.78;130.50;;;3.40;99.90;;;;;;5130130;28;20051;-83
2022/03/16 05:11:29;;;;;;;1009.47;128.73;;;4.30;99.90;;;;;;5113668;28;20356;-83
2022/03/16 05:13:56;;;;;;;436.77;88.05;;;3.30;99.90;;;;;;5112762;28;20039;-83
2022/03/16 05:16:22;;;;;;;593.38;94.75;;;3.20;99.90;;;;;;5113698;28;20047;-83
2022/03/16 05:18:47;;;;;;;699.63;102.07;;;4.10;99.90;;;;;;5095856;28;20043;-82
2022/03/16 05:21:13;;;;;;;839.45;114.63;;;3.80;99.90;;;;;;5113361;28;20051;-83
2022/03/16 05:23:40;;;;;;;668.83;98.00;;;3.40;99.90;;;;;;5112930;28;20075;-82
2022/03/16 05:26:06;;;;;;;549.97;89.70;;;4.00;99.90;;;;;;5130696;28;20078;-83
2022/03/16 05:28:32;;;;;;;470.45;85.40;;;4.10;99.90;;;;;;5130305;28;20097;-83
2022/03/16 05:30:57;;;;;;;780.97;110.63;;;4.10;99.90;;;;;;5112623;28;20047;-83
2022/03/16 05:33:24;;;;;;;880.30;114.10;;;4.60;99.90;;;;;;5132567;27;20051;-83
2022/03/16 05:35:50;;;;;;;900.58;121.28;;;3.40;99.90;;;;;;5117106;27;20092;-83
2022/03/16 05:38:16;;;;;;;385.05;81.65;;;4.10;99.90;;;;;;5083201;27;20095;-83
2022/03/16 05:40:42;;;;;;;573.00;101.05;;;3.50;99.90;;;;;;5116861;27;20429;-83
2022/03/16 05:43:08;;;;;;;303.25;76.68;;;3.40;99.90;;;;;;5135158;27;20047;-85
2022/03/16 05:45:34;;;;;;;258.45;74.72;;;3.30;99.90;;;;;;5117155;27;20054;-84
2022/03/16 05:48:00;;;;;;;293.70;80.57;;;3.30;99.90;;;;;;5133869;27;20069;-86
2022/03/16 05:50:28;;;;;;;262.83;79.85;;;4.00;99.90;;;;;;5117262;27;20039;-84
2022/03/16 05:53:03;;;;;;;310.67;87.55;;;4.50;99.90;;;;;;5134168;27;20384;-85
2022/03/16 05:55:28;;;;;;;322.38;85.43;;;3.40;99.90;;;;;;5100112;27;20171;-84
2022/03/16 05:57:54;;;;;;;276.52;84.07;;;3.50;99.90;;;;;;5114415;27;20035;-83
2022/03/16 06:00:21;;;;;;;251.63;79.78;;;4.60;99.90;;;;;;5115434;27;20096;-85
2022/03/16 06:02:47;;;;;;;272.90;84.97;;;3.60;99.90;;;;;;5117366;27;20039;-84
2022/03/16 06:05:13;;;;;;;278.13;86.68;;;3.70;99.90;;;;;;5107709;27;20599;-85
2022/03/16 06:07:39;;;;;;;286.00;81.57;;;3.80;99.90;;;;;;5134559;27;20118;-85
2022/03/16 06:10:09;;;;;;;285.60;83.30;;;4.20;99.90;;;;;;5098128;27;20180;-85
2022/03/16 06:12:48;;;;;;;247.10;73.97;;;3.80;99.90;;;;;;5133659;27;20103;-84
2022/03/16 06:15:14;;;;;;;309.58;79.82;;;4.20;99.90;;;;;;5134801;27;20044;-84
2022/03/16 06:17:39;;;;;;;247.40;70.05;;;3.80;99.90;;;;;;5132907;27;20046;-83
2022/03/16 06:20:05;;;;;;;314.17;78.65;;;3.90;99.90;;;;;;5132986;27;20043;-84
2022/03/16 06:22:31;;;;;;;308.05;81.18;;;3.70;99.90;;;;;;5134520;27;20039;-84
2022/03/16 06:24:56;;;;;;;257.30;74.50;;;4.60;99.90;;;;;;5132608;27;20440;-84
2022/03/16 06:27:22;;;;;;;237.48;71.72;;;4.50;99.90;;;;;;5133204;27;20123;-84
2022/03/16 06:29:48;;;;;;;338.15;79.13;;;3.60;99.90;;;;;;5133964;27;20440;-83
2022/03/16 06:32:13;;;;;;;316.08;75.60;;;3.70;99.90;;;;;;5134450;27;20039;-83
2022/03/16 06:34:39;;;;;;;319.13;73.75;;;3.80;99.90;;;;;;5134239;27;20041;-84
2022/03/16 06:37:05;;;;;;;294.38;79.70;;;3.90;99.90;;;;;;5133662;27;20074;-83
2022/03/16 06:39:30;;;;;;;211.40;69.22;;;3.80;99.90;;;;;;5132856;27;20509;-84
2022/03/16 06:41:56;;;;;;;206.77;69.50;;;3.80;99.90;;;;;;5133559;27;20370;-84
2022/03/16 06:44:21;;;;;;;189.10;67.93;;;4.40;99.90;;;;;;5132768;27;20043;-84
2022/03/16 06:46:48;;;;;;;180.43;65.50;;;3.80;99.90;;;;;;5131925;27;20057;-82
2022/03/16 06:49:14;;;;;;;170.10;69.90;;;3.90;99.90;;;;;;5116018;27;20100;-84
2022/03/16 06:51:40;;;;;;;183.27;69.57;;;4.70;99.90;;;;;;5115426;27;20043;-83
2022/03/16 06:54:05;;;;;;;184.40;69.22;;;4.00;99.90;;;;;;5115351;27;20046;-83
2022/03/16 06:56:31;;;;;;;168.07;66.85;;;4.50;99.90;;;;;;5115654;27;20039;-84
2022/03/16 06:58:57;;;;;;;166.63;67.07;;;4.20;99.90;;;;;;5132313;27;20035;-84
2022/03/16 07:01:22;;;;;;;163.45;64.80;;;4.80;99.90;;;;;;5115635;27;20125;-84
2022/03/16 07:03:48;;;;;;;156.85;63.53;;;5.30;99.90;;;;;;5133470;27;20050;-84
2022/03/16 07:06:14;;;;;;;151.18;61.88;;;4.40;99.90;;;;;;5132372;27;20394;-83
2022/03/16 07:08:39;;;;;;;161.40;65.25;;;5.20;99.90;;;;;;5114760;27;20050;-83
2022/03/16 07:11:07;;;;;;;157.32;64.93;;;4.70;99.90;;;;;;5131829;27;20056;-84
2022/03/16 07:13:33;;;;;;;149.38;62.90;;;4.50;99.90;;;;;;5132713;27;20071;-84
2022/03/16 07:15:58;;;;;;;171.00;67.60;;;4.70;99.90;;;;;;5133408;27;20042;-84
2022/03/16 07:18:24;;;;;;;174.10;68.63;;;4.60;99.90;;;;;;5098372;27;20035;-83
2022/03/16 07:20:50;;;;;;;184.50;67.13;;;5.40;99.90;;;;;;5132160;27;20035;-84
2022/03/16 07:23:16;;;;;;;155.93;64.30;;;5.10;99.90;;;;;;5097924;27;20054;-84
2022/03/16 07:25:43;;;;;;;151.30;65.03;;;4.80;99.90;;;;;;5114817;27;20039;-83
2022/03/16 07:28:09;;;;;;;138.02;61.72;;;5.00;99.90;;;;;;5114512;27;20422;-84
2022/03/16 07:30:36;;;;;;;143.18;61.55;;;5.30;99.90;;;;;;5114632;27;20043;-83
2022/03/16 07:33:02;;;;;;;131.20;61.13;;;6.10;99.90;;;;;;5114412;27;20043;-83
2022/03/16 07:35:28;;;;;;;126.82;59.58;;;6.30;99.90;;;;;;5131869;27;20088;-83
2022/03/16 07:37:54;;;;;;;117.63;56.75;;;5.30;99.90;;;;;;5114211;27;20100;-83
2022/03/16 07:40:20;;;;;;;124.45;53.40;;;5.40;99.90;;;;;;5133049;27;20088;-83
2022/03/16 07:42:46;;;;;;;109.43;54.00;;;5.60;99.90;;;;;;5131420;27;20051;-84
2022/03/16 07:45:14;;;;;;;122.80;56.95;;;5.50;99.90;;;;;;5080164;28;20122;-86
2022/03/16 07:47:40;;;;;;;110.45;55.17;;;5.60;99.90;;;;;;5124064;28;20100;-84
2022/03/16 07:50:07;;;;;;;104.22;52.15;;;5.90;99.90;;;;;;5134157;27;20062;-85
2022/03/16 07:52:33;;;;;;;93.50;49.22;;;6.20;99.90;;;;;;5114328;27;20108;-81
2022/03/16 07:54:58;;;;;;;72.85;43.42;;;6.50;99.90;;;;;;5130364;27;20043;-83
2022/03/16 07:57:25;;;;;;;76.93;44.97;;;6.80;99.90;;;;;;5130525;27;20046;-83
2022/03/16 07:59:51;;;;;;;65.10;41.50;;;7.00;99.90;;;;;;5131144;27;20054;-83
2022/03/16 08:02:16;;;;;;;61.38;40.63;;;7.80;99.90;;;;;;5131939;27;20453;-84
2022/03/16 08:04:42;;;;;;;58.42;39.28;;;8.30;99.90;;;;;;5096863;27;20050;-83
2022/03/16 08:07:09;;;;;;;49.85;34.63;;;8.30;99.90;;;;;;5132006;27;20039;-83
2022/03/16 08:09:35;;;;;;;46.20;32.22;;;8.40;99.90;;;;;;5130823;27;20054;-84
2022/03/16 08:12:01;;;;;;;47.28;34.20;;;8.30;99.90;;;;;;5131738;27;20043;-84
2022/03/16 08:14:27;;;;;;;46.10;32.72;;;8.00;99.90;;;;;;5130953;27;20571;-83
2022/03/16 08:16:53;;;;;;;49.60;34.60;;;7.90;99.90;;;;;;5096763;27;20053;-83
2022/03/16 08:19:21;;;;;;;50.65;34.80;;;8.00;99.90;;;;;;5113526;27;20031;-83
2022/03/16 08:21:49;;;;;;;44.80;31.45;;;8.00;99.90;;;;;;5130883;27;20058;-83
2022/03/16 08:24:15;;;;;;;42.08;30.08;;;8.60;99.90;;;;;;5130571;27;20374;-83
2022/03/16 08:26:41;;;;;;;43.85;31.48;;;8.90;99.90;;;;;;5132116;27;20034;-82
2022/03/16 08:29:07;;;;;;;40.13;30.10;;;9.10;99.90;;;;;;5096671;27;20127;-83
2022/03/16 08:31:33;;;;;;;40.25;29.55;;;9.10;99.90;;;;;;5130744;27;20133;-83
2022/03/16 08:34:01;;;;;;;41.55;31.23;;;9.50;99.90;;;;;;5130130;27;20046;-82
2022/03/16 08:36:26;;;;;;;39.70;30.27;;;9.80;99.90;;;;;;5130490;27;20051;-84
2022/03/16 08:38:52;;;;;;;41.70;29.45;;;10.20;99.90;;;;;;5130967;27;20103;-84
2022/03/16 08:41:18;;;;;;;38.97;30.13;;;10.50;99.90;;;;;;5130075;27;20053;-84
2022/03/16 08:43:44;;;;;;;40.35;29.17;;;11.10;99.90;;;;;;5131791;27;20043;-83
2022/03/16 08:46:10;;;;;;;37.70;28.52;;;11.60;99.90;;;;;;5079682;27;20039;-83
2022/03/16 08:48:37;;;;;;;38.42;27.75;;;12.20;99.90;;;;;;5130668;27;20362;-83
2022/03/16 08:51:03;;;;;;;33.50;27.20;;;12.40;99.90;;;;;;5131235;27;20470;-82
2022/03/16 08:53:28;;;;;;;32.90;26.35;;;12.70;99.90;;;;;;5113523;27;20055;-84
2022/03/16 08:55:54;;;;;;;32.35;25.30;;;13.30;99.90;;;;;;5130434;27;20046;-84
2022/03/16 08:58:20;;;;;;;32.60;25.60;;;13.30;99.90;;;;;;5129810;27;20387;-84
2022/03/16 09:00:45;;;;;;;30.83;25.77;;;13.40;99.90;;;;;;5131516;27;20039;-84
2022/03/16 09:03:11;;;;;;;33.00;24.95;;;13.70;99.90;;;;;;5131123;27;20039;-82
2022/03/16 09:05:37;;;;;;;31.40;24.70;;;14.00;99.90;;;;;;5131421;28;20039;-83
2022/03/16 09:08:03;;;;;;;29.27;24.88;;;14.00;99.90;;;;;;5132584;27;20046;-81
2022/03/16 09:10:29;;;;;;;31.55;23.80;;;14.20;99.90;;;;;;5138531;27;20054;-83
2022/03/16 09:12:55;;;;;;;33.78;23.90;;;14.60;99.90;;;;;;5137067;27;20398;-84
2022/03/16 09:15:20;;;;;;;29.95;23.90;;;15.00;99.90;;;;;;5136701;27;20074;-84
2022/03/16 09:17:46;;;;;;;29.70;24.95;;;14.70;99.90;;;;;;5138515;27;20100;-83
2022/03/16 09:20:12;;;;;;;31.23;23.55;;;15.00;99.90;;;;;;5136586;27;20194;-83
2022/03/16 09:22:37;;;;;;;32.55;23.35;;;15.10;99.90;;;;;;5120203;27;20039;-83
2022/03/16 09:25:03;;;;;;;29.27;22.58;;;15.10;99.90;;;;;;5138563;27;20100;-83
2022/03/16 09:27:29;;;;;;;29.50;23.80;;;14.50;99.90;;;;;;5138028;27;20043;-83
2022/03/16 09:29:55;;;;;;;26.75;20.88;;;14.30;99.90;;;;;;5138370;27;20043;-83
2022/03/16 09:32:22;;;;;;;31.83;23.23;;;14.30;99.90;;;;;;5145745;27;20122;-82
2022/03/16 09:34:50;;;;;;;33.88;23.95;;;14.50;99.90;;;;;;5139058;27;20043;-84
2022/03/16 09:37:16;;;;;;;28.27;20.75;;;14.50;99.90;;;;;;5137966;27;20039;-83
2022/03/16 09:39:42;;;;;;;26.50;20.27;;;14.70;99.90;;;;;;5119738;27;20039;-82
2022/03/16 09:42:11;;;;;;;27.23;17.70;;;15.00;99.90;;;;;;5137832;27;20051;-83
2022/03/16 09:44:36;;;;;;;24.70;19.98;;;15.10;99.90;;;;;;5138062;27;20042;-84
2022/03/16 09:47:03;;;;;;;26.55;18.88;;;15.40;99.90;;;;;;5136636;27;20394;-84
2022/03/16 09:49:29;;;;;;;22.13;16.08;;;15.30;99.90;;;;;;5136377;27;20046;-83
2022/03/16 09:51:55;;;;;;;20.15;16.25;;;15.40;99.90;;;;;;5136979;27;20372;-84
2022/03/16 09:54:21;;;;;;;20.42;15.38;;;15.20;99.90;;;;;;5119576;27;20055;-84
2022/03/16 09:56:47;;;;;;;19.52;14.18;;;15.20;99.90;;;;;;5138203;27;20046;-85
2022/03/16 09:59:14;;;;;;;20.30;14.95;;;14.90;99.90;;;;;;5118358;27;20104;-82
2022/03/16 10:01:42;;;;;;;17.25;13.23;;;15.10;99.90;;;;;;5135664;27;20091;-82
2022/03/16 10:04:07;;;;;;;16.40;12.82;;;14.80;99.90;;;;;;5127425;27;20440;-81
2022/03/16 10:06:42;;;;;;;17.83;13.65;;;14.90;99.90;;;;;;5135523;27;20179;-82
2022/03/16 10:15:05;;;;;;;14.30;12.25;;;15.20;99.90;;;;;;5121249;27;20043;-81
2022/03/16 10:17:43;;;;;;;14.15;12.18;;;15.10;99.90;;;;;;5130972;27;20055;-82
2022/03/16 10:20:20;;;;;;;14.90;11.80;;;14.90;99.90;;;;;;5097690;28;20379;-81
2022/03/16 10:23:07;;;;;;;13.65;11.68;;;14.50;99.90;;;;;;5089664;28;20047;-82
2022/03/16 10:25:38;;;;;;;19.40;12.85;;;14.20;99.90;;;;;;5114063;27;20374;-82
2022/03/16 10:28:11;;;;;;;17.40;11.80;;;14.20;99.90;;;;;;5133022;27;20047;-83
2022/03/16 10:30:57;;;;;;;16.33;12.55;;;14.40;99.90;;;;;;5133304;27;20062;-82
2022/03/16 10:33:30;;;;;;;15.93;12.00;;;14.20;99.90;;;;;;5102201;27;20090;-85
2022/03/16 10:35:56;;;;;;;18.48;13.48;;;14.10;99.90;;;;;;5100280;27;20047;-85
2022/03/16 10:38:22;;;;;;;16.95;12.68;;;14.10;99.90;;;;;;5132396;27;20050;-85
2022/03/16 10:40:49;;;;;;;20.92;13.90;;;13.90;99.90;;;;;;5134644;27;20043;-85
2022/03/16 10:46:48;;;;;;;19.30;14.38;;;13.90;99.90;;;;;;5049169;27;20044;-83
2022/03/16 10:49:09;;;;;;;19.40;14.32;;;14.00;99.90;;;;;;5111926;27;20043;-83
2022/03/16 10:51:35;;;;;;;23.02;15.43;;;13.90;99.90;;;;;;5103434;28;20491;-85
2022/03/16 10:54:02;;;;;;;20.88;14.55;;;14.00;99.90;;;;;;5108391;27;20383;-84
2022/03/16 10:56:29;;;;;;;22.13;14.40;;;13.80;99.90;;;;;;5097555;27;20371;-84
2022/03/16 10:58:54;;;;;;;21.10;15.77;;;14.10;99.90;;;;;;5077407;27;20035;-84
2022/03/16 11:01:21;;;;;;;20.52;14.52;;;13.80;99.90;;;;;;5130063;27;20042;-84
2022/03/16 11:03:48;;;;;;;21.38;13.98;;;13.80;99.90;;;;;;5126478;27;20481;-85
2022/03/16 11:06:14;;;;;;;21.23;14.85;;;14.00;99.90;;;;;;5113190;27;20042;-85
2022/03/16 11:08:41;;;;;;;20.70;14.98;;;14.20;99.90;;;;;;5131012;27;20054;-84
2022/03/16 11:13:28;;;;;;;21.15;15.75;;;14.30;99.90;;;;;;5132131;27;20043;-84
2022/03/16 11:13:56;;;;;;;19.98;14.02;;;14.10;99.90;;;;;;5143696;27;20078;-83
2022/03/16 11:16:21;;;;;;;17.42;12.30;;;14.10;99.90;;;;;;5112519;27;20043;-86
2022/03/16 11:18:51;;;;;;;18.73;14.18;;;14.00;99.90;;;;;;5132927;27;20047;-82
2022/03/16 11:21:21;;;;;;;16.85;11.43;;;14.00;99.90;;;;;;5132482;27;20148;-82
2022/03/16 11:26:40;;;;;;;18.88;12.95;;;14.00;99.90;;;;;;5103702;27;20099;-85
2022/03/16 11:29:18;;;;;;;17.95;13.13;;;14.10;99.90;;;;;;5132243;27;20078;-85
2022/03/16 11:31:44;;;;;;;20.40;13.35;;;14.10;99.90;;;;;;5133434;27;20047;-83
2022/03/16 11:34:11;;;;;;;20.10;14.30;;;14.10;99.90;;;;;;5134041;27;20046;-85
2022/03/16 11:36:40;;;;;;;20.67;14.70;;;14.00;99.90;;;;;;5132468;27;20474;-84
2022/03/16 11:39:20;;;;;;;18.60;14.38;;;14.10;99.90;;;;;;5133562;27;20046;-85
2022/03/16 11:41:50;;;;;;;19.92;13.73;;;14.10;99.90;;;;;;5098100;27;20440;-84
2022/03/16 11:44:24;;;;;;;19.88;14.23;;;14.20;99.90;;;;;;5132348;27;20035;-86
2022/03/16 11:46:50;;;;;;;21.77;14.02;;;14.30;99.90;;;;;;5133369;27;20050;-85
2022/03/16 11:49:29;;;;;;;19.35;13.48;;;14.20;99.90;;;;;;5133378;27;20046;-85
2022/03/16 11:52:02;;;;;;;18.90;13.93;;;14.30;99.90;;;;;;5131902;27;20061;-86
2022/03/16 11:54:45;;;;;;;19.77;13.27;;;14.30;99.90;;;;;;5097481;27;20104;-85
2022/03/16 11:57:11;;;;;;;19.17;14.00;;;14.10;99.90;;;;;;5115174;27;20047;-85
2022/03/16 11:59:44;;;;;;;19.58;14.43;;;14.10;99.90;;;;;;5132470;27;20047;-85
2022/03/16 12:02:23;;;;;;;19.17;13.45;;;14.10;99.90;;;;;;5115115;27;20047;-84
2022/03/16 12:04:49;;;;;;;19.10;13.40;;;14.20;99.90;;;;;;5131572;27;20150;-85
2022/03/16 12:07:26;;;;;;;19.98;13.73;;;14.30;99.90;;;;;;5114227;27;20410;-84
2022/03/16 12:09:54;;;;;;;23.08;15.15;;;14.20;99.90;;;;;;5132311;27;20503;-85
2022/03/16 12:15:25;;;;;;;20.98;14.25;;;14.50;99.90;;;;;;5118045;27;20051;-85
2022/03/16 12:17:51;;;;;;;20.42;13.18;;;14.50;99.90;;;;;;5132290;27;20047;-84
2022/03/16 12:20:27;;;;;;;18.17;12.63;;;14.60;99.90;;;;;;5133835;27;20050;-85
2022/03/16 12:22:54;;;;;;;19.77;13.50;;;14.50;99.90;;;;;;5133471;27;20385;-85
2022/03/16 12:25:26;;;;;;;20.00;13.02;;;14.60;99.90;;;;;;5114905;27;20406;-85
2022/03/16 12:31:01;;;;;;;19.85;13.73;;;14.50;99.90;;;;;;5132033;27;20127;-85
2022/03/16 12:33:31;;;;;;;24.17;14.40;;;14.50;99.90;;;;;;5133064;27;20043;-85
2022/03/16 12:36:04;;;;;;;22.17;14.10;;;14.50;99.90;;;;;;5114951;27;20399;-85
2022/03/16 12:38:32;;;;;;;20.58;14.48;;;14.60;99.90;;;;;;5114858;27;20565;-86
2022/03/16 12:43:42;;;;;;;18.20;13.27;;;14.50;99.90;;;;;;5116026;27;20142;-83
2022/03/16 12:46:32;;;;;;;20.70;14.18;;;14.60;99.90;;;;;;5132777;27;20131;-85